Plymouth, Nebraska
Current Conditions -  °F | °C
As of 10:35 PM on Thursday 18 Dec 2014 (Local Time) from KBIE Reporting Station
Overcast Overcast  
Wind Chill: 25°   Ceiling: 3800
Heat Index: 31°   Visibility: 7mi
Dew Point: 28°   Wind: 6mph
Humidity: 91%   Direction: 190°S
Pressure: 30.24"   Gusts: NA
Location:  40.3°N, 96.99°W
Report Text: KBIE 190435Z AUTO 19005KT 7SM SCT013 OVC038 M01/M02 A3024 RMK AO2 T10071020
Loading
Personal Weather Stations






























Interactive Weather Map New forecast layout! Learn more

10-Day Weather Forecast

Advertisements
Track Severe Weather on mobile